»·PEaware :: BOE561 KLAS-KSNA

BOE561 :: KLAS-KSNA

FLIGHT INFORMATION

Flight Status: Arrived
Operator:
Boeing Commercial Airplane Group
More flights by this operator :: More flights under this callsign
Pilot: Ben F. (2808)
Aircraft: BOEING 737-200
(B732)
More flights by this aircraft type
Origin: KLAS McCarran Intl
United States
Destination: KSNA John Wayne-Orange Co
United States
More flights between these airports :: More routes between these airports
Route: +MCCRN5 HEC KAYOH7
File this flight plan on PilotEdge
Remarks:
Altitude:
(Current/Filed)
24,000ft
Speed:
(Current/Filed)
411kts
Departed: 18-Mar-18 09:00 AM
Arrived: 18-Mar-18 09:49 AM
Distance/Time
Traveled:
197nm/0:48
Distance/Time
To Go:
Arrived

Flight Plot

Page will automatically refresh every two minutes.

Flight plan parsing failed; only flown route is shown


Map Options




Map Legend


Flown Route
Filed Route
Departure Airport
Arrival Airport
Navaid (VOR, NDB)
Fix

Horizontal Profiles

Position Reports

Time Latitude Longitude Heading Altitude Ground
Speed
18-Mar-18 08:38 36.081453 -115.171213 89 2189ft 0kts
18-Mar-18 08:39 36.081453 -115.171213 89 2189ft 0kts
18-Mar-18 08:40 36.081453 -115.171213 89 2189ft 0kts
18-Mar-18 08:41 36.081453 -115.171213 89 2189ft 0kts
18-Mar-18 08:42 36.081453 -115.171213 89 2189ft 0kts
18-Mar-18 08:43 36.081453 -115.171213 89 2189ft 0kts
18-Mar-18 08:44 36.081453 -115.171213 89 2189ft 0kts
18-Mar-18 08:45 36.081453 -115.171213 89 2189ft 0kts
18-Mar-18 08:46 36.081453 -115.171213 89 2189ft 0kts
18-Mar-18 08:47 36.081453 -115.171213 89 2189ft 0kts
18-Mar-18 08:48 36.081453 -115.171213 89 2189ft 0kts
18-Mar-18 08:49 36.081453 -115.171213 89 2189ft 0kts
18-Mar-18 08:50 36.081453 -115.171213 89 2189ft 0kts
18-Mar-18 08:51 36.081453 -115.171213 89 2189ft 0kts
18-Mar-18 08:52 36.081453 -115.171213 89 2189ft 0kts
18-Mar-18 08:53 36.081453 -115.171212 90 2189ft 0kts
18-Mar-18 08:54 36.081443 -115.169854 89 2189ft 3kts
18-Mar-18 08:55 36.085240 -115.167031 25 2189ft 24kts
18-Mar-18 08:56 36.091335 -115.163528 25 2189ft 24kts
18-Mar-18 08:57 36.097456 -115.160040 24 2189ft 24kts
18-Mar-18 08:58 36.099826 -115.157367 99 2189ft 8kts
18-Mar-18 08:59 36.095600 -115.158739 204 2189ft 88kts
18-Mar-18 09:00 36.053266 -115.184151 204 3986ft 206kts
18-Mar-18 09:01 35.991079 -115.207393 173 6499ft 270kts
18-Mar-18 09:02 35.912063 -115.198895 178 9609ft 298kts
18-Mar-18 09:03 35.825822 -115.217980 192 11539ft 352kts
18-Mar-18 09:04 35.727091 -115.243309 211 13867ft 370kts
18-Mar-18 09:05 35.655406 -115.329034 233 16336ft 368kts
18-Mar-18 09:06 35.585527 -115.422073 234 18481ft 375kts
18-Mar-18 09:07 35.518140 -115.511582 235 20295ft 381kts
18-Mar-18 09:08 35.446813 -115.607006 236 22075ft 383kts
18-Mar-18 09:09 35.382896 -115.692451 236 23354ft 390kts
18-Mar-18 09:10 35.309158 -115.790858 236 24110ft 411kts
18-Mar-18 09:11 35.231195 -115.894376 236 24118ft 421kts
18-Mar-18 09:12 35.151580 -115.999799 236 24124ft 426kts
18-Mar-18 09:13 35.071548 -116.105437 236 24123ft 427kts
18-Mar-18 09:14 34.991419 -116.210908 236 24165ft 426kts
18-Mar-18 09:15 34.911444 -116.315844 235 24178ft 424kts
18-Mar-18 09:16 34.836748 -116.413559 235 24154ft 421kts
18-Mar-18 09:17 34.758648 -116.512830 234 24155ft 420kts
18-Mar-18 09:18 34.679062 -116.611076 234 22213ft 393kts
18-Mar-18 09:19 34.611052 -116.694715 232 19647ft 367kts
18-Mar-18 09:20 34.541738 -116.779728 231 17531ft 355kts
18-Mar-18 09:21 34.484917 -116.849232 230 15768ft 348kts
18-Mar-18 09:22 34.408181 -116.942802 229 13722ft 328kts
18-Mar-18 09:23 34.346590 -117.017677 229 12992ft 301kts
18-Mar-18 09:24 34.299129 -117.075343 230 12996ft 288kts
18-Mar-18 09:25 34.215217 -117.120906 192 13005ft 308kts
18-Mar-18 09:26 34.145074 -117.132486 190 12057ft 309kts
18-Mar-18 09:27 34.064000 -117.144721 189 10999ft 300kts
18-Mar-18 09:28 33.984716 -117.156068 189 10989ft 284kts
18-Mar-18 09:29 33.908931 -117.167588 190 10976ft 266kts
18-Mar-18 09:30 33.843475 -117.177451 190 10978ft 247kts
18-Mar-18 09:31 33.785913 -117.210481 260 10458ft 239kts
18-Mar-18 09:32 33.781435 -117.287375 272 9446ft 228kts
18-Mar-18 09:33 33.780595 -117.361924 272 8186ft 219kts
18-Mar-18 09:34 33.780195 -117.431913 272 6637ft 206kts
18-Mar-18 09:35 33.780373 -117.499202 273 6013ft 206kts
18-Mar-18 09:36 33.780774 -117.566731 277 5990ft 198kts
18-Mar-18 09:37 33.797435 -117.627558 292 5318ft 186kts
18-Mar-18 09:38 33.812016 -117.677042 291 4982ft 178kts
18-Mar-18 09:39 33.828343 -117.732459 291 3668ft 177kts
18-Mar-18 09:40 33.834218 -117.784208 219 2996ft 161kts
18-Mar-18 09:41 33.794093 -117.794473 225 2996ft 154kts
18-Mar-18 09:42 33.816196 -117.835017 15 2992ft 192kts
18-Mar-18 09:43 33.836129 -117.792234 137 3012ft 181kts
18-Mar-18 09:44 33.788813 -117.801810 198 2568ft 196kts
18-Mar-18 09:45 33.743026 -117.823657 207 1475ft 165kts
18-Mar-18 09:46 33.708589 -117.848486 207 620ft 131kts
18-Mar-18 09:47 33.677347 -117.867794 209 65ft 116kts
18-Mar-18 09:48 33.669081 -117.871543 124 65ft 0kts
18-Mar-18 09:49 33.670736 -117.869223 39 65ft 19kts
18-Mar-18 09:50 33.671966 -117.867308 207 65ft 0kts
18-Mar-18 09:51 33.671966 -117.867308 207 65ft 0kts

Navigation Log

Ident Type
Flight plan parsing failed, navigation log unavailable